createdAt,value
2018-07-31T00:02:28.779Z,73.81
2018-07-31T00:04:57.988Z,74.37
2018-07-31T00:07:27.246Z,74.20
2018-07-31T00:09:56.427Z,74.74
2018-07-31T00:12:26.370Z,74.96
2018-07-31T00:14:55.584Z,74.77
2018-07-31T00:17:24.844Z,74.85
2018-07-31T00:19:54.452Z,75.28
2018-07-31T00:22:23.731Z,75.93
2018-07-31T00:24:53.079Z,75.89
2018-07-31T00:27:22.254Z,75.87
2018-07-31T00:29:51.470Z,76.40
2018-07-31T00:32:20.818Z,77.09
2018-07-31T00:34:49.987Z,77.06
2018-07-31T00:37:19.208Z,76.50
2018-07-31T00:39:48.386Z,76.51
2018-07-31T00:42:17.748Z,76.62
2018-07-31T00:44:46.966Z,77.00
2018-07-31T00:47:16.170Z,77.51
2018-07-31T00:49:45.417Z,77.86
2018-07-31T00:52:14.622Z,77.86
2018-07-31T00:54:43.829Z,77.92
2018-07-31T00:57:13.895Z,78.25
2018-07-31T00:59:43.058Z,77.99
2018-07-31T01:02:12.271Z,78.14
2018-07-31T01:04:41.445Z,78.44
2018-07-31T01:07:10.666Z,77.52
2018-07-31T01:09:39.870Z,78.16
2018-07-31T01:12:09.075Z,78.00
2018-07-31T01:14:38.865Z,78.82
2018-07-31T01:17:08.026Z,78.46
2018-07-31T01:19:37.258Z,78.57
2018-07-31T01:22:06.553Z,78.05
2018-07-31T01:24:35.795Z,78.64
2018-07-31T01:27:05.010Z,78.18
2018-07-31T01:29:34.222Z,77.85
2018-07-31T01:32:03.438Z,78.86
2018-07-31T01:34:32.700Z,80.08
2018-07-31T01:37:01.943Z,79.51
2018-07-31T01:39:31.195Z,79.60
2018-07-31T01:42:00.706Z,79.59
2018-07-31T01:44:29.924Z,79.28
2018-07-31T01:46:59.349Z,80.32
2018-07-31T01:49:28.535Z,80.05
2018-07-31T01:51:57.718Z,79.87
2018-07-31T01:54:26.984Z,79.94
2018-07-31T01:56:56.193Z,79.55
2018-07-31T01:59:25.459Z,79.00
2018-07-31T02:01:54.718Z,80.03
2018-07-31T02:04:24.019Z,80.48
2018-07-31T02:06:53.225Z,80.76
2018-07-31T02:09:22.435Z,81.41
2018-07-31T02:11:51.682Z,80.65
2018-07-31T02:14:20.605Z,80.75
2018-07-31T02:16:49.506Z,81.12
2018-07-31T02:19:18.430Z,80.97
2018-07-31T02:21:47.415Z,81.23
2018-07-31T02:24:16.502Z,82.22
2018-07-31T02:26:45.392Z,82.11
2018-07-31T02:29:15.047Z,81.96
2018-07-31T02:31:44.174Z,81.45
2018-07-31T02:34:13.739Z,82.35
2018-07-31T02:36:42.668Z,82.78
2018-07-31T02:39:11.643Z,82.82
2018-07-31T02:41:41.081Z,82.69
2018-07-31T02:44:10.010Z,82.66
2018-07-31T02:46:38.923Z,81.95
2018-07-31T02:49:07.955Z,82.60
2018-07-31T02:51:36.827Z,83.44
2018-07-31T02:54:06.146Z,82.84
2018-07-31T02:56:35.107Z,83.11
2018-07-31T02:59:04.347Z,83.23
2018-07-31T03:01:33.274Z,83.80
2018-07-31T03:04:02.197Z,84.31
2018-07-31T03:06:31.232Z,84.60
2018-07-31T03:09:00.369Z,84.93
2018-07-31T03:11:29.525Z,84.72
2018-07-31T03:13:58.510Z,84.84
2018-07-31T03:16:27.475Z,84.99
2018-07-31T03:18:56.482Z,84.08
2018-07-31T03:21:25.578Z,84.69
2018-07-31T03:23:54.590Z,85.12
2018-07-31T03:26:23.565Z,84.64
2018-07-31T03:28:52.532Z,85.00
2018-07-31T03:31:21.632Z,85.02
2018-07-31T03:33:50.597Z,86.10
2018-07-31T03:36:19.566Z,85.88
2018-07-31T03:38:48.619Z,85.65
2018-07-31T03:41:18.217Z,85.28
2018-07-31T03:43:47.174Z,86.16
2018-07-31T03:46:16.149Z,85.40
2018-07-31T03:48:45.234Z,85.11
2018-07-31T03:51:14.255Z,84.94
2018-07-31T03:53:43.174Z,84.99
2018-07-31T03:56:12.208Z,85.56
2018-07-31T03:58:41.167Z,86.87
2018-07-31T04:01:10.527Z,87.21
2018-07-31T04:03:39.594Z,86.77
2018-07-31T04:06:08.729Z,87.13
2018-07-31T04:08:37.814Z,86.40
2018-07-31T04:11:06.816Z,86.71
2018-07-31T04:13:35.773Z,87.01
2018-07-31T04:16:04.771Z,87.47
2018-07-31T04:18:33.718Z,86.30
2018-07-31T04:21:02.673Z,86.05
2018-07-31T04:23:31.657Z,86.53
2018-07-31T04:26:00.639Z,86.41
2018-07-31T04:28:29.649Z,85.67
2018-07-31T04:30:59.395Z,85.67
2018-07-31T04:33:29.210Z,84.98
2018-07-31T04:35:58.229Z,84.69
2018-07-31T04:38:27.164Z,85.36
2018-07-31T04:40:56.115Z,85.19
2018-07-31T04:43:25.042Z,84.52
2018-07-31T04:45:54.020Z,84.45
2018-07-31T04:48:23.724Z,84.64
2018-07-31T04:50:52.789Z,84.16
2018-07-31T04:53:21.876Z,83.17
2018-07-31T04:55:50.806Z,81.80
2018-07-31T04:58:19.917Z,80.69
2018-07-31T05:00:48.948Z,79.42
2018-07-31T05:03:18.031Z,79.03
2018-07-31T05:05:47.006Z,78.27
2018-07-31T05:08:16.828Z,77.99
2018-07-31T05:10:45.798Z,77.80
2018-07-31T05:13:14.858Z,76.31
2018-07-31T05:15:43.805Z,76.60
2018-07-31T05:18:12.787Z,76.39
2018-07-31T05:20:41.715Z,77.58
2018-07-31T05:23:10.728Z,78.26
2018-07-31T05:25:40.393Z,77.75
2018-07-31T05:28:09.436Z,78.78
2018-07-31T05:30:38.500Z,78.59
2018-07-31T05:33:07.531Z,78.26
2018-07-31T05:35:37.100Z,79.75
2018-07-31T05:38:06.286Z,80.19
2018-07-31T05:40:35.373Z,79.31
2018-07-31T05:43:04.523Z,78.96
2018-07-31T05:45:34.178Z,79.80
2018-07-31T05:48:03.458Z,78.92
2018-07-31T05:50:32.938Z,79.15
2018-07-31T05:53:01.975Z,79.62
2018-07-31T05:55:31.710Z,81.36
2018-07-31T05:58:01.316Z,79.81
2018-07-31T06:00:30.250Z,77.90
2018-07-31T06:02:59.526Z,78.04
2018-07-31T06:05:28.739Z,77.71
2018-07-31T06:07:57.894Z,77.33
2018-07-31T06:10:27.439Z,77.77
2018-07-31T06:12:56.691Z,77.64
2018-07-31T06:15:25.791Z,76.73
2018-07-31T06:17:54.726Z,76.82
2018-07-31T06:20:23.956Z,77.77
2018-07-31T06:22:53.615Z,76.96
2018-07-31T06:25:23.571Z,74.86
2018-07-31T06:27:53.773Z,73.29
2018-07-31T06:30:23.186Z,72.59
2018-07-31T06:32:52.308Z,72.04
2018-07-31T06:35:22.541Z,72.57
2018-07-31T06:37:51.723Z,72.62
2018-07-31T06:40:20.877Z,72.97
2018-07-31T06:42:50.154Z,72.93
2018-07-31T06:45:20.422Z,72.52
2018-07-31T06:47:49.799Z,71.83
2018-07-31T06:50:19.034Z,74.80
2018-07-31T06:52:48.343Z,74.84
2018-07-31T06:55:17.439Z,74.84
2018-07-31T06:57:46.542Z,74.27
2018-07-31T07:00:15.802Z,73.79
2018-07-31T07:02:44.955Z,72.75
2018-07-31T07:05:14.218Z,71.49
2018-07-31T07:07:43.307Z,72.73
2018-07-31T07:10:12.434Z,73.61
2018-07-31T07:12:41.562Z,74.41
2018-07-31T07:15:10.991Z,72.40
2018-07-31T07:17:40.732Z,74.18
2018-07-31T07:20:10.487Z,72.17
2018-07-31T07:22:40.003Z,71.84
2018-07-31T07:25:09.637Z,69.86
2018-07-31T07:27:38.570Z,67.77
2018-07-31T07:30:08.110Z,63.93
2018-07-31T07:32:37.376Z,58.54
2018-07-31T07:35:06.654Z,52.56
2018-07-31T07:37:35.938Z,55.60
2018-07-31T07:40:05.066Z,55.98
2018-07-31T07:42:34.598Z,55.59
2018-07-31T07:45:04.471Z,49.00
2018-07-31T07:47:33.951Z,50.24
2018-07-31T07:50:03.485Z,51.05
2018-07-31T07:52:33.182Z,51.64
2018-07-31T07:55:02.516Z,54.86
2018-07-31T07:57:31.818Z,55.03
2018-07-31T08:00:01.070Z,51.87
2018-07-31T08:02:30.397Z,55.62
2018-07-31T08:05:00.279Z,55.87
2018-07-31T08:07:29.416Z,54.42
2018-07-31T08:09:58.658Z,51.43
2018-07-31T08:12:27.809Z,53.68
2018-07-31T08:14:57.322Z,50.05
2018-07-31T08:17:26.602Z,50.47
2018-07-31T08:19:55.660Z,57.48
2018-07-31T08:22:25.643Z,56.12
2018-07-31T08:24:54.922Z,56.75
2018-07-31T08:27:24.206Z,54.82
2018-07-31T08:29:53.380Z,50.36
2018-07-31T08:32:22.588Z,48.82
2018-07-31T08:34:51.547Z,48.41
2018-07-31T08:37:20.765Z,49.62
2018-07-31T08:39:50.463Z,47.14
2018-07-31T08:42:19.971Z,47.43
2018-07-31T08:44:49.929Z,46.74
2018-07-31T08:47:19.872Z,44.59
2018-07-31T08:49:50.406Z,39.63
2018-07-31T08:52:20.036Z,35.78
2018-07-31T08:54:49.645Z,34.78
2018-07-31T08:57:18.910Z,36.04
2018-07-31T08:59:48.010Z,35.83
2018-07-31T09:02:17.235Z,35.71
2018-07-31T09:04:46.417Z,32.58
2018-07-31T09:07:15.675Z,41.27
2018-07-31T09:09:45.071Z,43.06
2018-07-31T09:12:15.062Z,42.77
2018-07-31T09:14:44.425Z,42.77
2018-07-31T09:17:13.774Z,45.20
2018-07-31T09:19:43.195Z,43.09
2018-07-31T09:22:12.892Z,42.82
2018-07-31T09:24:42.508Z,43.80
2018-07-31T09:27:12.317Z,41.18
2018-07-31T09:29:41.858Z,42.48
2018-07-31T09:32:10.921Z,43.58
2018-07-31T09:34:46.155Z,44.65
2018-07-31T09:37:16.484Z,44.05
2018-07-31T09:39:45.946Z,38.86
2018-07-31T09:42:15.490Z,38.72
2018-07-31T09:44:44.419Z,35.24
2018-07-31T09:47:13.710Z,37.84
2018-07-31T09:49:43.611Z,36.95
2018-07-31T09:52:13.127Z,37.08
2018-07-31T09:54:42.639Z,33.13
2018-07-31T09:57:11.925Z,35.38
2018-07-31T09:59:41.198Z,36.88
2018-07-31T10:02:10.311Z,33.42
2018-07-31T10:04:40.600Z,31.65
2018-07-31T10:07:09.757Z,35.61
2018-07-31T10:09:39.048Z,36.37
2018-07-31T10:12:08.361Z,34.10
2018-07-31T10:14:37.418Z,33.32
2018-07-31T10:17:07.218Z,33.79
2018-07-31T10:19:41.059Z,39.25
2018-07-31T10:22:10.230Z,40.92
2018-07-31T10:24:39.406Z,38.63
2018-07-31T10:27:09.005Z,35.15
2018-07-31T10:29:38.734Z,35.42
2018-07-31T10:32:08.437Z,36.29
2018-07-31T10:34:38.155Z,34.95
2018-07-31T10:37:07.571Z,33.13
2018-07-31T10:39:36.822Z,33.89
2018-07-31T10:42:06.278Z,35.07
2018-07-31T10:44:36.068Z,35.60
2018-07-31T10:47:05.323Z,34.15
2018-07-31T10:49:34.570Z,31.46
2018-07-31T10:52:04.510Z,30.10
2018-07-31T10:54:33.795Z,30.79
2018-07-31T10:57:03.110Z,29.43
2018-07-31T10:59:32.407Z,27.74
2018-07-31T11:02:01.928Z,28.00
2018-07-31T11:04:31.874Z,31.45
2018-07-31T11:07:01.119Z,32.84
2018-07-31T11:09:30.638Z,34.10
2018-07-31T11:12:00.322Z,34.91
2018-07-31T11:14:29.625Z,36.23
2018-07-31T11:16:58.958Z,35.13
2018-07-31T11:19:28.889Z,35.44
2018-07-31T11:21:58.146Z,34.87
2018-07-31T11:24:27.474Z,34.07
2018-07-31T11:26:56.791Z,33.84
2018-07-31T11:29:26.207Z,33.92
2018-07-31T11:31:56.183Z,34.58
2018-07-31T11:34:26.116Z,33.12
2018-07-31T11:36:55.647Z,33.45
2018-07-31T11:39:24.861Z,34.32
2018-07-31T11:41:53.974Z,34.70
2018-07-31T11:44:22.922Z,34.14
2018-07-31T11:46:52.384Z,35.21
2018-07-31T11:49:21.644Z,36.12
2018-07-31T11:51:51.386Z,35.95
2018-07-31T11:54:21.059Z,36.68
2018-07-31T11:56:50.851Z,37.90
2018-07-31T11:59:20.534Z,38.63
2018-07-31T12:01:50.009Z,39.46
2018-07-31T12:04:19.067Z,40.47
2018-07-31T12:06:49.138Z,40.21
2018-07-31T12:09:18.299Z,40.41
2018-07-31T12:11:47.798Z,39.98
2018-07-31T12:14:16.940Z,39.37
2018-07-31T12:16:47.038Z,39.67
2018-07-31T12:19:16.162Z,39.23
2018-07-31T12:21:45.263Z,39.29
2018-07-31T12:24:14.747Z,38.92
2018-07-31T12:26:43.857Z,39.64
2018-07-31T12:29:14.411Z,39.68
2018-07-31T12:31:43.642Z,39.71
2018-07-31T12:34:13.082Z,39.96
2018-07-31T12:36:42.409Z,39.85
2018-07-31T12:39:12.803Z,39.25
2018-07-31T12:41:42.059Z,38.17
2018-07-31T12:44:11.125Z,38.71
2018-07-31T12:46:40.458Z,38.10
2018-07-31T12:49:09.707Z,37.14
2018-07-31T12:51:38.934Z,37.73
2018-07-31T12:54:08.171Z,37.74
2018-07-31T12:56:37.347Z,38.11
2018-07-31T12:59:06.402Z,40.36
2018-07-31T13:01:35.350Z,38.14
2018-07-31T13:04:05.139Z,38.27
2018-07-31T13:06:34.362Z,39.25
2018-07-31T13:09:03.955Z,39.55
2018-07-31T13:11:33.424Z,39.75
2018-07-31T13:14:03.012Z,39.86
2018-07-31T13:16:32.301Z,38.73
2018-07-31T13:19:01.853Z,37.88
2018-07-31T13:21:31.770Z,38.76
2018-07-31T13:24:01.019Z,39.13
2018-07-31T13:26:30.394Z,38.88
2018-07-31T13:29:00.094Z,39.48
2018-07-31T13:31:29.666Z,40.51
2018-07-31T13:33:59.635Z,39.66
2018-07-31T13:36:29.067Z,41.03
2018-07-31T13:38:59.154Z,39.93
2018-07-31T13:41:28.381Z,39.58
2018-07-31T13:43:58.231Z,40.27
2018-07-31T13:46:27.374Z,40.71
2018-07-31T13:48:56.469Z,39.24
2018-07-31T13:51:26.203Z,38.98
2018-07-31T13:53:55.658Z,39.65
2018-07-31T13:56:25.255Z,39.12
2018-07-31T13:58:55.986Z,40.18
2018-07-31T14:01:25.246Z,39.45
2018-07-31T14:03:55.465Z,39.23
2018-07-31T14:06:24.445Z,39.67
2018-07-31T14:08:53.752Z,40.08
2018-07-31T14:11:23.706Z,40.06
2018-07-31T14:13:53.113Z,40.33
2018-07-31T14:16:22.021Z,41.00
2018-07-31T14:18:51.322Z,41.12
2018-07-31T14:21:20.460Z,41.29
2018-07-31T14:23:50.213Z,40.82
2018-07-31T14:26:19.443Z,40.88
2018-07-31T14:28:49.623Z,41.72
2018-07-31T14:31:18.913Z,41.75
2018-07-31T14:33:47.866Z,42.17
2018-07-31T14:36:16.832Z,41.23
2018-07-31T14:38:46.461Z,42.18
2018-07-31T14:41:15.735Z,41.97
2018-07-31T14:43:44.722Z,42.11
2018-07-31T14:46:13.678Z,42.13
2018-07-31T14:48:43.153Z,42.38
2018-07-31T14:51:12.140Z,41.43
2018-07-31T14:53:41.112Z,42.51
2018-07-31T14:56:10.286Z,41.51
2018-07-31T14:58:39.242Z,41.60
2018-07-31T15:01:08.347Z,42.00
2018-07-31T15:03:37.438Z,40.69
2018-07-31T15:06:06.842Z,40.07
2018-07-31T15:08:38.612Z,39.79
2018-07-31T15:11:09.744Z,39.45
2018-07-31T15:13:39.102Z,38.57
2018-07-31T15:16:08.518Z,38.85
2018-07-31T15:18:37.977Z,40.05
2018-07-31T15:21:08.039Z,39.50
2018-07-31T15:23:37.894Z,39.33
2018-07-31T15:26:08.919Z,38.23
2018-07-31T15:28:37.891Z,38.86
2018-07-31T15:31:07.177Z,40.26
2018-07-31T15:33:36.270Z,40.28
2018-07-31T15:36:05.389Z,37.95
2018-07-31T15:38:34.906Z,38.62
2018-07-31T15:41:04.812Z,39.03
2018-07-31T15:43:34.274Z,40.26
2018-07-31T15:46:03.384Z,39.12
2018-07-31T15:48:32.556Z,38.33
2018-07-31T15:51:01.884Z,39.02
2018-07-31T15:53:31.425Z,39.11
2018-07-31T15:56:00.390Z,39.21
2018-07-31T15:58:30.090Z,38.63
2018-07-31T16:00:59.183Z,40.43
2018-07-31T16:03:28.705Z,38.97
2018-07-31T16:05:58.403Z,40.02
2018-07-31T16:08:27.542Z,39.40
2018-07-31T16:10:57.272Z,39.01
2018-07-31T16:13:26.568Z,39.19
2018-07-31T16:15:55.838Z,39.52
2018-07-31T16:18:25.164Z,40.58
2018-07-31T16:20:54.842Z,39.55
2018-07-31T16:23:24.936Z,38.55
2018-07-31T16:25:54.708Z,39.63
2018-07-31T16:28:23.799Z,38.32
2018-07-31T16:30:53.247Z,38.40
2018-07-31T16:33:22.417Z,37.76
2018-07-31T16:35:52.010Z,37.98
2018-07-31T16:38:21.170Z,38.48
2018-07-31T16:40:51.224Z,37.89
2018-07-31T16:43:20.359Z,39.06
2018-07-31T16:45:50.067Z,38.68
2018-07-31T16:48:19.765Z,37.73
2018-07-31T16:50:49.090Z,38.87
2018-07-31T16:53:18.566Z,38.49
2018-07-31T16:55:48.407Z,38.89
2018-07-31T16:58:17.839Z,38.98
2018-07-31T17:00:47.917Z,38.50
2018-07-31T17:03:17.443Z,39.73
2018-07-31T17:05:46.529Z,39.73
2018-07-31T17:08:17.143Z,38.50
2018-07-31T17:10:46.586Z,39.09
2018-07-31T17:13:16.127Z,38.99
2018-07-31T17:15:45.555Z,38.23
2018-07-31T17:18:15.302Z,38.04
2018-07-31T17:20:44.794Z,38.67
2018-07-31T17:23:15.653Z,37.65
2018-07-31T17:25:44.783Z,37.35
2018-07-31T17:28:15.039Z,37.39
2018-07-31T17:30:44.197Z,38.88
2018-07-31T17:33:13.780Z,38.71
2018-07-31T17:35:42.734Z,38.83
2018-07-31T17:38:18.598Z,38.67
2018-07-31T17:40:47.578Z,38.87
2018-07-31T17:43:16.573Z,39.06
2018-07-31T17:45:45.571Z,37.88
2018-07-31T17:48:15.410Z,38.09
2018-07-31T17:50:44.607Z,37.49
2018-07-31T17:53:13.634Z,37.77
2018-07-31T17:55:42.622Z,38.72
2018-07-31T17:58:11.770Z,37.10
2018-07-31T18:00:40.747Z,39.63
2018-07-31T18:03:09.865Z,39.01
2018-07-31T18:05:38.851Z,39.07
2018-07-31T18:08:07.824Z,38.21
2018-07-31T18:10:36.800Z,37.84
2018-07-31T18:13:07.153Z,37.56
2018-07-31T18:15:36.076Z,37.62
2018-07-31T18:18:05.204Z,38.38
2018-07-31T18:20:34.251Z,38.22
2018-07-31T18:23:03.230Z,37.99
2018-07-31T18:25:32.309Z,38.45
2018-07-31T18:28:01.296Z,39.86
2018-07-31T18:30:30.356Z,38.69
2018-07-31T18:32:59.343Z,39.76
2018-07-31T18:35:28.321Z,39.76
2018-07-31T18:37:57.351Z,39.75
2018-07-31T18:40:27.298Z,38.97
2018-07-31T18:42:56.293Z,40.56
2018-07-31T18:45:25.598Z,39.28
2018-07-31T18:47:54.677Z,40.78
2018-07-31T18:50:25.330Z,39.45
2018-07-31T18:52:54.308Z,40.85
2018-07-31T18:55:23.393Z,39.25
2018-07-31T18:57:52.413Z,40.66
2018-07-31T19:00:21.410Z,40.35
2018-07-31T19:02:50.443Z,40.86
2018-07-31T19:05:19.452Z,39.97
2018-07-31T19:07:48.399Z,40.16
2018-07-31T19:10:17.482Z,40.71
2018-07-31T19:12:46.562Z,40.67
2018-07-31T19:15:15.593Z,40.43
2018-07-31T19:17:44.591Z,41.05
2018-07-31T19:20:13.568Z,39.87
2018-07-31T19:22:42.618Z,41.33
2018-07-31T19:25:11.729Z,40.18
2018-07-31T19:27:40.837Z,40.08
2018-07-31T19:30:09.798Z,39.95
2018-07-31T19:32:38.873Z,40.85
2018-07-31T19:35:08.015Z,41.58
2018-07-31T19:37:36.997Z,42.05
2018-07-31T19:40:06.229Z,41.99
2018-07-31T19:42:35.476Z,42.31
2018-07-31T19:45:04.829Z,42.48
2018-07-31T19:47:33.879Z,42.00
2018-07-31T19:50:02.825Z,42.21
2018-07-31T19:52:31.833Z,42.41
2018-07-31T19:55:00.927Z,42.61
2018-07-31T19:57:30.327Z,43.26
2018-07-31T19:59:59.303Z,42.83
2018-07-31T20:02:28.791Z,43.46
2018-07-31T20:04:57.986Z,43.49
2018-07-31T20:07:27.140Z,43.86
2018-07-31T20:09:56.370Z,44.50
2018-07-31T20:12:25.351Z,45.82
2018-07-31T20:14:54.275Z,44.92
2018-07-31T20:17:23.479Z,45.37
2018-07-31T20:19:52.467Z,46.36
2018-07-31T20:22:21.491Z,46.42
2018-07-31T20:24:50.464Z,46.96
2018-07-31T20:27:20.221Z,46.65
2018-07-31T20:29:49.226Z,47.51
2018-07-31T20:32:18.223Z,47.12
2018-07-31T20:34:47.909Z,46.92
2018-07-31T20:37:17.446Z,47.49
2018-07-31T20:39:46.490Z,46.35
2018-07-31T20:42:15.498Z,46.08
2018-07-31T20:44:44.536Z,46.46
2018-07-31T20:47:13.510Z,45.40
2018-07-31T20:49:42.544Z,46.18
2018-07-31T20:52:12.532Z,46.46
2018-07-31T20:54:41.504Z,47.74
2018-07-31T20:57:10.588Z,47.73
2018-07-31T20:59:39.618Z,48.30
2018-07-31T21:02:09.190Z,48.44
2018-07-31T21:04:38.248Z,48.92
2018-07-31T21:07:07.959Z,49.72
2018-07-31T21:09:36.933Z,49.86
2018-07-31T21:12:06.722Z,49.76
2018-07-31T21:14:36.495Z,50.40
2018-07-31T21:17:05.562Z,49.96
2018-07-31T21:19:34.836Z,49.86
2018-07-31T21:22:03.927Z,50.95
2018-07-31T21:24:33.076Z,51.15
2018-07-31T21:27:02.131Z,51.73
2018-07-31T21:29:31.198Z,52.45
2018-07-31T21:32:00.859Z,52.05
2018-07-31T21:34:29.929Z,51.95
2018-07-31T21:36:58.935Z,51.97
2018-07-31T21:39:27.913Z,52.77
2018-07-31T21:41:56.902Z,52.67
2018-07-31T21:44:25.903Z,52.85
2018-07-31T21:46:54.898Z,53.56
2018-07-31T21:49:23.831Z,53.97
2018-07-31T21:51:52.793Z,53.58
2018-07-31T21:54:21.866Z,54.04
2018-07-31T21:56:50.823Z,53.76
2018-07-31T21:59:20.514Z,54.21
2018-07-31T22:01:49.465Z,54.40
2018-07-31T22:04:18.498Z,54.60
2018-07-31T22:06:47.504Z,54.43
2018-07-31T22:09:16.496Z,55.10
2018-07-31T22:11:46.043Z,54.92
2018-07-31T22:14:14.998Z,54.84
2018-07-31T22:16:43.951Z,55.50
2018-07-31T22:19:12.939Z,55.09
2018-07-31T22:21:42.594Z,55.76
2018-07-31T22:24:11.652Z,55.79
2018-07-31T22:26:40.729Z,56.24
2018-07-31T22:29:09.745Z,56.07
2018-07-31T22:31:38.962Z,57.11
2018-07-31T22:34:08.210Z,56.97
2018-07-31T22:36:37.171Z,57.68
2018-07-31T22:39:08.892Z,56.83
2018-07-31T22:41:38.325Z,57.47
2018-07-31T22:44:07.327Z,57.51
2018-07-31T22:46:36.459Z,57.61
2018-07-31T22:49:05.478Z,57.19
2018-07-31T22:51:34.419Z,57.97
2018-07-31T22:54:03.366Z,58.34
2018-07-31T22:56:32.366Z,58.10
2018-07-31T22:59:01.387Z,58.54
2018-07-31T23:01:30.350Z,58.99
2018-07-31T23:03:59.332Z,59.51
2018-07-31T23:06:28.264Z,59.58
2018-07-31T23:08:57.556Z,59.41
2018-07-31T23:11:26.580Z,59.84
2018-07-31T23:13:56.202Z,59.65
2018-07-31T23:16:25.219Z,59.93
2018-07-31T23:18:54.485Z,60.61
2018-07-31T23:21:23.490Z,60.61
2018-07-31T23:23:52.371Z,60.34
2018-07-31T23:26:21.371Z,60.58
2018-07-31T23:28:50.561Z,61.17
2018-07-31T23:31:19.578Z,61.43
2018-07-31T23:33:48.545Z,61.65
2018-07-31T23:36:17.487Z,61.55
2018-07-31T23:38:46.478Z,62.11
2018-07-31T23:41:15.530Z,62.13
2018-07-31T23:43:44.551Z,61.69
2018-07-31T23:46:13.534Z,62.38
2018-07-31T23:48:42.504Z,61.58
2018-07-31T23:51:11.507Z,62.35
2018-07-31T23:53:40.676Z,61.93
2018-07-31T23:56:09.617Z,61.75
2018-07-31T23:58:38.593Z,61.63
